METAR Data
IDs: Format: Raw Decoded Include TAF

Data at: 2021 UTC 18 Apr 2021

LFML 182000Z AUTO 32014KT 9999 FEW017 13/02 Q1017 TEMPO 32015G25KT